Terminal Aerodrome Forecast
Issued by NWS

Home | Current Version | Previous Version | Text Only | Print | Product List | Glossary Off
Versions: 1 2 3 4 5 6 7 8 9 10 11 12 13 14 15 16 17 18 19 20 21 22 23 24 25 26 27 28 29

000
FTUS43 KABR 051114 AAB
TAFMBG
TAF AMD
KMBG 051114Z 0511/0606 10009KT P6SM FEW100 OVC250
     FM051200 28008KT P6SM VCSH BKN060
     FM051400 30014KT 3SM -SN OVC030
     FM051900 31022G32KT P6SM BKN025=

USA.gov is the U.S. government's official web portal to all federal, state and local government web resources and services.